createdAt,value
2017-12-03T00:01:48.415Z,1.20
2017-12-03T00:04:18.414Z,1.20
2017-12-03T00:06:47.647Z,1.20
2017-12-03T00:09:16.860Z,1.20
2017-12-03T00:11:46.074Z,1.10
2017-12-03T00:14:15.303Z,1.00
2017-12-03T00:16:44.517Z,0.90
2017-12-03T00:19:13.731Z,0.90
2017-12-03T00:21:43.722Z,0.90
2017-12-03T00:24:12.941Z,0.90
2017-12-03T00:26:42.146Z,0.90
2017-12-03T00:29:12.156Z,1.00
2017-12-03T00:31:41.371Z,1.00
2017-12-03T00:34:11.391Z,0.90
2017-12-03T00:36:41.350Z,0.90
2017-12-03T00:39:10.590Z,0.90
2017-12-03T00:41:39.815Z,1.00
2017-12-03T00:44:09.013Z,1.00
2017-12-03T00:46:38.422Z,1.00
2017-12-03T00:49:07.634Z,1.10
2017-12-03T00:51:36.502Z,1.10
2017-12-03T00:54:05.738Z,1.10
2017-12-03T00:56:34.957Z,1.00
2017-12-03T00:59:04.172Z,1.00
2017-12-03T01:01:33.434Z,1.00
2017-12-03T01:04:02.629Z,1.00
2017-12-03T01:06:31.850Z,1.00
2017-12-03T01:09:00.890Z,0.90
2017-12-03T01:11:30.096Z,0.90
2017-12-03T01:13:59.316Z,0.90
2017-12-03T01:16:28.558Z,0.70
2017-12-03T01:18:57.745Z,0.70
2017-12-03T01:21:26.962Z,0.80
2017-12-03T01:23:56.982Z,0.80
2017-12-03T01:26:26.768Z,0.80
2017-12-03T01:28:55.806Z,0.70
2017-12-03T01:31:25.099Z,0.70
2017-12-03T01:33:55.071Z,0.60
2017-12-03T01:36:24.427Z,0.60
2017-12-03T01:38:54.386Z,0.60
2017-12-03T01:41:23.666Z,0.60
2017-12-03T01:43:52.226Z,0.60
2017-12-03T01:46:21.100Z,0.50
2017-12-03T01:48:51.119Z,0.50
2017-12-03T01:51:20.767Z,0.50
2017-12-03T01:53:49.974Z,0.50
2017-12-03T01:56:19.022Z,0.50
2017-12-03T01:58:48.825Z,0.40
2017-12-03T02:01:18.838Z,0.40
2017-12-03T02:03:48.861Z,0.40
2017-12-03T02:06:17.405Z,0.40
2017-12-03T02:08:46.305Z,0.40
2017-12-03T02:11:15.006Z,0.40
2017-12-03T02:13:44.215Z,0.50
2017-12-03T02:16:13.455Z,0.40
2017-12-03T02:18:42.662Z,0.40
2017-12-03T02:21:11.434Z,0.40
2017-12-03T02:23:40.341Z,0.40
2017-12-03T02:26:09.554Z,0.40
2017-12-03T02:28:38.774Z,0.30
2017-12-03T02:31:08.027Z,0.30
2017-12-03T02:33:37.273Z,0.30
2017-12-03T02:36:06.468Z,0.30
2017-12-03T02:38:35.706Z,0.20
2017-12-03T02:41:05.692Z,0.20
2017-12-03T02:43:34.931Z,0.10
2017-12-03T02:46:03.805Z,0.10
2017-12-03T02:48:33.806Z,0.00
2017-12-03T02:51:03.014Z,0.00
2017-12-03T02:53:32.236Z,0.00
2017-12-03T02:56:02.235Z,-0.10
2017-12-03T02:58:31.445Z,-0.10
2017-12-03T03:01:00.428Z,0.00
2017-12-03T03:03:29.622Z,0.00
2017-12-03T03:05:59.609Z,0.10
2017-12-03T03:08:28.507Z,0.10
2017-12-03T03:10:57.746Z,0.00
2017-12-03T03:13:26.973Z,0.10
2017-12-03T03:15:56.153Z,0.10
2017-12-03T03:18:25.398Z,0.10
2017-12-03T03:20:54.626Z,0.20
2017-12-03T03:23:24.645Z,0.10
2017-12-03T03:25:54.630Z,0.10
2017-12-03T03:28:23.891Z,0.10
2017-12-03T03:30:53.095Z,0.20
2017-12-03T03:33:22.305Z,0.20
2017-12-03T03:35:50.951Z,0.20
2017-12-03T03:38:20.256Z,0.20
2017-12-03T03:40:50.286Z,0.10
2017-12-03T03:43:19.481Z,0.10
2017-12-03T03:45:48.752Z,0.00
2017-12-03T03:48:17.670Z,0.00
2017-12-03T03:50:46.890Z,-0.10
2017-12-03T03:53:16.134Z,-0.20
2017-12-03T03:55:44.756Z,-0.30
2017-12-03T03:58:13.993Z,-0.40
2017-12-03T04:00:42.547Z,-0.40
2017-12-03T04:03:11.125Z,-0.50
2017-12-03T04:05:39.661Z,-0.50
2017-12-03T04:08:08.545Z,-0.50
2017-12-03T04:10:37.150Z,-0.50
2017-12-03T04:13:06.032Z,-0.60
2017-12-03T04:15:34.934Z,-0.70
2017-12-03T04:18:04.197Z,-0.70
2017-12-03T04:20:33.113Z,-0.70
2017-12-03T04:23:02.021Z,-0.80
2017-12-03T04:25:30.929Z,-0.80
2017-12-03T04:27:59.972Z,-0.80
2017-12-03T04:30:28.999Z,-0.80
2017-12-03T04:32:58.446Z,-0.60
2017-12-03T04:35:27.001Z,-0.50
2017-12-03T04:37:55.361Z,-0.60
2017-12-03T04:40:24.267Z,-0.60
2017-12-03T04:42:53.915Z,-0.50
2017-12-03T04:45:22.838Z,-0.50
2017-12-03T04:47:51.391Z,-0.40
2017-12-03T04:50:20.077Z,-0.40
2017-12-03T04:52:48.645Z,-0.40
2017-12-03T04:55:17.566Z,-0.30
2017-12-03T04:57:46.439Z,-0.20
2017-12-03T05:00:15.034Z,-0.20
2017-12-03T05:02:43.778Z,-0.20
2017-12-03T05:05:13.505Z,0.10
2017-12-03T05:07:42.838Z,0.10
2017-12-03T05:10:11.716Z,0.10
2017-12-03T05:12:40.592Z,0.20
2017-12-03T05:15:09.178Z,0.20
2017-12-03T05:17:38.051Z,0.20
2017-12-03T05:20:07.356Z,0.30
2017-12-03T05:22:36.713Z,0.20
2017-12-03T05:25:05.267Z,0.20
2017-12-03T05:27:33.878Z,0.30
2017-12-03T05:30:02.459Z,0.30
2017-12-03T05:32:31.318Z,0.30
2017-12-03T05:34:59.884Z,0.30
2017-12-03T05:37:29.294Z,0.30
2017-12-03T05:39:58.987Z,0.30
2017-12-03T05:42:28.662Z,0.30
2017-12-03T05:44:57.550Z,0.30
2017-12-03T05:47:26.436Z,0.30
2017-12-03T05:49:55.350Z,0.30
2017-12-03T05:52:23.890Z,0.30
2017-12-03T05:54:52.440Z,0.30
2017-12-03T05:57:21.783Z,0.30
2017-12-03T05:59:50.340Z,0.30
2017-12-03T06:02:18.884Z,0.40
2017-12-03T06:04:47.790Z,0.40
2017-12-03T06:07:16.663Z,0.40
2017-12-03T06:09:45.250Z,0.40
2017-12-03T06:12:13.821Z,0.40
2017-12-03T06:14:42.710Z,0.40
2017-12-03T06:17:11.090Z,0.30
2017-12-03T06:19:39.730Z,0.30
2017-12-03T06:22:09.365Z,0.40
2017-12-03T06:24:38.051Z,0.30
2017-12-03T06:27:07.339Z,0.40
2017-12-03T06:29:36.208Z,0.40
2017-12-03T06:32:05.532Z,0.30
2017-12-03T06:34:34.434Z,0.30
2017-12-03T06:37:02.985Z,0.30
2017-12-03T06:39:31.608Z,0.30
2017-12-03T06:42:00.160Z,0.40
2017-12-03T06:44:29.459Z,0.20
2017-12-03T06:46:58.581Z,0.20
2017-12-03T06:49:27.130Z,0.10
2017-12-03T06:51:56.436Z,0.10
2017-12-03T06:54:25.793Z,0.10
2017-12-03T06:56:54.674Z,0.00
2017-12-03T06:59:23.211Z,0.00
2017-12-03T07:01:52.905Z,0.00
2017-12-03T07:04:21.772Z,-0.10
2017-12-03T07:06:50.755Z,-0.10
2017-12-03T07:09:19.322Z,-0.20
2017-12-03T07:11:48.218Z,-0.20
2017-12-03T07:14:17.125Z,-0.20
2017-12-03T07:16:46.013Z,-0.20
2017-12-03T07:19:14.562Z,-0.30
2017-12-03T07:21:43.182Z,-0.30
2017-12-03T07:24:11.730Z,-0.30
2017-12-03T07:26:40.334Z,-0.30
2017-12-03T07:29:08.914Z,-0.20
2017-12-03T07:31:39.300Z,-0.30
2017-12-03T07:34:09.246Z,-0.30
2017-12-03T07:36:38.446Z,-0.40
2017-12-03T07:39:07.008Z,-0.40
2017-12-03T07:41:35.592Z,-0.40
2017-12-03T07:44:04.231Z,-0.30
2017-12-03T07:46:32.939Z,-0.30
2017-12-03T07:49:01.348Z,-0.40
2017-12-03T07:51:29.980Z,-0.40
2017-12-03T07:53:58.615Z,-0.40
2017-12-03T07:56:27.018Z,-0.30
2017-12-03T07:58:56.150Z,-0.30
2017-12-03T08:01:24.690Z,-0.30
2017-12-03T08:03:53.338Z,-0.30
2017-12-03T08:06:22.231Z,-0.20
2017-12-03T08:08:50.602Z,-0.20
2017-12-03T08:11:19.189Z,-0.30
2017-12-03T08:13:48.067Z,-0.30
2017-12-03T08:16:16.448Z,-0.20
2017-12-03T08:18:44.825Z,-0.20
2017-12-03T08:21:13.178Z,-0.20
2017-12-03T08:23:41.571Z,-0.10
2017-12-03T08:26:10.042Z,0.00
2017-12-03T08:28:39.530Z,0.20
2017-12-03T08:31:09.597Z,0.20
2017-12-03T08:33:39.038Z,0.20
2017-12-03T08:36:07.928Z,0.10
2017-12-03T08:38:37.210Z,0.20
2017-12-03T08:41:05.948Z,0.40
2017-12-03T08:43:35.353Z,0.40
2017-12-03T08:46:03.947Z,0.40
2017-12-03T08:48:32.508Z,0.50
2017-12-03T08:51:02.203Z,0.60
2017-12-03T08:53:31.636Z,0.60
2017-12-03T08:56:01.286Z,0.70
2017-12-03T08:58:30.159Z,0.60
2017-12-03T09:00:58.731Z,0.80
2017-12-03T09:03:27.713Z,0.80
2017-12-03T09:05:57.411Z,0.70
2017-12-03T09:08:26.787Z,0.80
2017-12-03T09:10:55.326Z,0.80
2017-12-03T09:13:23.955Z,0.90
2017-12-03T09:15:52.510Z,1.00
2017-12-03T09:18:21.056Z,1.00
2017-12-03T09:20:49.627Z,1.00
2017-12-03T09:23:19.661Z,1.20
2017-12-03T09:25:49.003Z,1.30
2017-12-03T09:28:17.533Z,1.30
2017-12-03T09:30:46.090Z,1.40
2017-12-03T09:33:14.702Z,1.50
2017-12-03T09:35:43.630Z,1.50
2017-12-03T09:38:12.169Z,1.60
2017-12-03T09:40:41.007Z,1.60
2017-12-03T09:43:09.870Z,1.70
2017-12-03T09:45:38.436Z,1.60
2017-12-03T09:48:06.985Z,1.70
2017-12-03T09:50:35.538Z,1.60
2017-12-03T09:53:04.076Z,1.60
2017-12-03T09:55:32.998Z,1.70
2017-12-03T09:58:02.360Z,2.00
2017-12-03T10:00:30.903Z,1.90
2017-12-03T10:02:59.499Z,2.10
2017-12-03T10:05:28.830Z,2.20
2017-12-03T10:07:57.822Z,2.20
2017-12-03T10:10:26.756Z,2.40
2017-12-03T10:12:55.346Z,2.50
2017-12-03T10:15:24.253Z,2.70
2017-12-03T10:17:52.829Z,2.90
2017-12-03T10:20:21.401Z,3.00
2017-12-03T10:22:50.376Z,3.00
2017-12-03T10:25:18.906Z,2.70
2017-12-03T10:27:48.570Z,2.80
2017-12-03T10:30:17.321Z,2.80
2017-12-03T10:32:46.649Z,2.80
2017-12-03T10:35:15.536Z,2.80
2017-12-03T10:37:56.004Z,2.90
2017-12-03T10:40:25.234Z,3.10
2017-12-03T10:42:54.449Z,3.20
2017-12-03T10:45:23.700Z,3.10
2017-12-03T10:47:52.890Z,3.00
2017-12-03T10:50:22.122Z,3.10
2017-12-03T10:52:51.371Z,3.20
2017-12-03T10:55:21.025Z,3.00
2017-12-03T10:57:50.234Z,3.00
2017-12-03T11:00:18.630Z,3.00
2017-12-03T11:02:49.193Z,3.20
2017-12-03T11:05:18.346Z,3.20
2017-12-03T11:07:46.891Z,3.20
2017-12-03T11:10:15.829Z,3.20
2017-12-03T11:12:44.759Z,3.20
2017-12-03T11:15:14.735Z,3.30
2017-12-03T11:17:44.022Z,3.30
2017-12-03T11:20:13.238Z,3.60
2017-12-03T11:22:42.447Z,3.70
2017-12-03T11:25:11.360Z,3.40
2017-12-03T11:27:41.365Z,3.40
2017-12-03T11:30:10.594Z,3.40
2017-12-03T11:32:39.688Z,3.30
2017-12-03T11:35:08.714Z,3.00
2017-12-03T11:37:37.922Z,2.90
2017-12-03T11:40:07.179Z,2.90
2017-12-03T11:42:36.393Z,2.90
2017-12-03T11:45:05.651Z,3.00
2017-12-03T11:47:34.944Z,3.10
2017-12-03T11:50:04.210Z,3.10
2017-12-03T11:52:33.413Z,2.90
2017-12-03T11:55:02.628Z,2.80
2017-12-03T11:57:31.876Z,2.80
2017-12-03T12:00:01.125Z,2.80
2017-12-03T12:02:31.149Z,2.70
2017-12-03T12:05:00.403Z,2.70
2017-12-03T12:07:29.682Z,2.50
2017-12-03T12:09:58.916Z,2.50
2017-12-03T12:12:28.166Z,2.40
2017-12-03T12:14:57.425Z,2.30
2017-12-03T12:17:26.638Z,2.30
2017-12-03T12:19:55.854Z,2.40
2017-12-03T12:22:25.109Z,2.30
2017-12-03T12:24:54.331Z,2.40
2017-12-03T12:27:23.549Z,2.50
2017-12-03T12:29:52.782Z,2.50
2017-12-03T12:32:22.011Z,2.50
2017-12-03T12:34:51.039Z,2.50
2017-12-03T12:37:20.083Z,2.50
2017-12-03T12:39:49.302Z,2.50
2017-12-03T12:42:18.380Z,2.30
2017-12-03T12:44:47.442Z,2.20
2017-12-03T12:47:16.258Z,2.20
2017-12-03T12:49:45.936Z,2.20
2017-12-03T12:52:15.136Z,2.20
2017-12-03T12:54:44.459Z,2.10
2017-12-03T12:57:14.164Z,2.10
2017-12-03T12:59:43.828Z,2.00
2017-12-03T13:02:14.340Z,2.00
2017-12-03T13:04:43.981Z,2.00
2017-12-03T13:07:13.694Z,2.10
2017-12-03T13:09:43.345Z,2.00
2017-12-03T13:12:13.228Z,2.00
2017-12-03T13:14:42.897Z,2.00
2017-12-03T13:17:12.558Z,1.90
2017-12-03T13:19:42.406Z,1.90
2017-12-03T13:22:12.054Z,1.80
2017-12-03T13:24:41.771Z,1.80
2017-12-03T13:27:12.200Z,1.60
2017-12-03T13:29:42.051Z,1.60
2017-12-03T13:32:11.796Z,1.60
2017-12-03T13:34:41.558Z,1.70
2017-12-03T13:37:11.222Z,1.70
2017-12-03T13:39:41.654Z,1.60
2017-12-03T13:42:12.337Z,1.70
2017-12-03T13:44:41.989Z,1.60
2017-12-03T13:47:12.436Z,1.60
2017-12-03T13:49:42.135Z,1.60
2017-12-03T13:52:11.991Z,1.60
2017-12-03T13:54:41.651Z,1.50
2017-12-03T13:57:12.108Z,1.50
2017-12-03T13:59:41.573Z,1.50
2017-12-03T14:02:11.242Z,1.50
2017-12-03T14:04:40.969Z,1.50
2017-12-03T14:07:10.775Z,1.50
2017-12-03T14:09:41.081Z,1.50
2017-12-03T14:12:10.544Z,1.50
2017-12-03T14:14:41.054Z,1.50
2017-12-03T14:17:10.705Z,1.50
2017-12-03T14:19:40.397Z,1.50
2017-12-03T14:22:10.857Z,1.50
2017-12-03T14:24:40.323Z,1.50
2017-12-03T14:27:10.769Z,1.50
2017-12-03T14:29:40.263Z,1.50
2017-12-03T14:32:10.703Z,1.50
2017-12-03T14:34:40.420Z,1.50
2017-12-03T14:37:10.097Z,1.40
2017-12-03T14:39:39.788Z,1.40
2017-12-03T14:42:09.451Z,1.40
2017-12-03T14:44:39.176Z,1.40
2017-12-03T14:47:08.674Z,1.40
2017-12-03T14:49:38.440Z,1.40
2017-12-03T14:52:08.869Z,1.20
2017-12-03T14:54:38.606Z,1.20
2017-12-03T14:57:08.253Z,1.20
2017-12-03T14:59:38.751Z,1.20
2017-12-03T15:02:08.402Z,1.10
2017-12-03T15:04:38.508Z,1.10
2017-12-03T15:07:07.874Z,1.10
2017-12-03T15:09:37.530Z,1.10
2017-12-03T15:12:07.978Z,1.10
2017-12-03T15:14:37.634Z,1.10
2017-12-03T15:17:07.206Z,1.10
2017-12-03T15:19:35.988Z,1.10
2017-12-03T15:22:04.999Z,1.20
2017-12-03T15:24:33.831Z,1.20
2017-12-03T15:27:02.833Z,1.10
2017-12-03T15:29:31.822Z,1.10
2017-12-03T15:32:00.854Z,1.10
2017-12-03T15:34:30.608Z,1.10
2017-12-03T15:36:59.598Z,1.00
2017-12-03T15:39:28.444Z,1.00
2017-12-03T15:41:58.200Z,1.00
2017-12-03T15:44:27.185Z,1.00
2017-12-03T15:46:56.343Z,1.00
2017-12-03T15:49:24.955Z,1.00
2017-12-03T15:51:53.746Z,1.00
2017-12-03T15:54:22.607Z,1.00
2017-12-03T15:56:52.840Z,1.00
2017-12-03T15:59:22.782Z,0.90
2017-12-03T16:01:51.821Z,0.90
2017-12-03T16:04:20.683Z,0.90
2017-12-03T16:06:49.662Z,0.90
2017-12-03T16:09:18.492Z,0.90
2017-12-03T16:11:48.154Z,0.90
2017-12-03T16:14:17.486Z,0.90
2017-12-03T16:16:47.182Z,0.90
2017-12-03T16:19:16.835Z,0.90
2017-12-03T16:21:46.149Z,0.90
2017-12-03T16:24:16.290Z,0.90
2017-12-03T16:26:45.958Z,0.90
2017-12-03T16:29:15.638Z,0.90
2017-12-03T16:31:44.707Z,0.90
2017-12-03T16:34:13.715Z,0.90
2017-12-03T16:36:43.056Z,0.90
2017-12-03T16:39:12.702Z,0.90
2017-12-03T16:41:42.024Z,1.00
2017-12-03T16:44:11.698Z,0.90
2017-12-03T16:46:41.814Z,1.00
2017-12-03T16:49:11.938Z,1.00
2017-12-03T16:51:42.360Z,1.00
2017-12-03T16:54:12.065Z,1.00
2017-12-03T16:56:41.377Z,1.00
2017-12-03T16:59:11.958Z,1.00
2017-12-03T17:01:41.297Z,1.00
2017-12-03T17:04:10.989Z,1.10
2017-12-03T17:06:40.630Z,1.00
2017-12-03T17:09:10.225Z,1.10
2017-12-03T17:11:40.369Z,1.10
2017-12-03T17:14:10.092Z,1.10
2017-12-03T17:16:39.726Z,1.30
2017-12-03T17:19:09.453Z,1.20
2017-12-03T17:21:39.093Z,1.30
2017-12-03T17:24:09.561Z,1.30
2017-12-03T17:26:38.398Z,1.30
2017-12-03T17:29:07.375Z,1.30
2017-12-03T17:31:36.344Z,1.20
2017-12-03T17:34:05.714Z,1.20
2017-12-03T17:36:35.150Z,1.20
2017-12-03T17:39:04.218Z,1.10
2017-12-03T17:41:34.858Z,1.10
2017-12-03T17:44:04.552Z,1.10
2017-12-03T17:46:35.003Z,1.20
2017-12-03T17:49:04.495Z,1.10
2017-12-03T17:51:34.353Z,1.10
2017-12-03T17:54:04.006Z,1.00
2017-12-03T17:56:34.277Z,0.90
2017-12-03T17:59:03.933Z,0.90
2017-12-03T18:01:34.403Z,1.00
2017-12-03T18:04:04.049Z,1.00
2017-12-03T18:06:33.750Z,1.00
2017-12-03T18:09:03.024Z,0.90
2017-12-03T18:11:32.681Z,0.90
2017-12-03T18:14:02.368Z,1.00
2017-12-03T18:16:32.031Z,1.00
2017-12-03T18:19:02.515Z,1.10
2017-12-03T18:21:32.191Z,1.00
2017-12-03T18:24:01.874Z,1.10
2017-12-03T18:26:31.981Z,1.10
2017-12-03T18:29:01.681Z,1.10
2017-12-03T18:31:31.314Z,1.10
2017-12-03T18:34:01.490Z,1.20
2017-12-03T18:36:30.628Z,1.20
2017-12-03T18:39:00.080Z,1.20
2017-12-03T18:41:29.240Z,1.20
2017-12-03T18:43:59.131Z,1.20
2017-12-03T18:46:28.670Z,1.20
2017-12-03T18:48:58.884Z,1.20
2017-12-03T18:51:28.821Z,1.20
2017-12-03T18:53:57.958Z,1.20
2017-12-03T18:56:28.215Z,1.20
2017-12-03T18:58:58.466Z,1.20
2017-12-03T19:01:27.986Z,1.20
2017-12-03T19:03:57.150Z,1.20
2017-12-03T19:06:26.286Z,1.20
2017-12-03T19:08:55.793Z,1.20
2017-12-03T19:11:25.474Z,1.30
2017-12-03T19:13:54.276Z,1.30
2017-12-03T19:16:23.811Z,1.30
2017-12-03T19:18:52.939Z,1.30
2017-12-03T19:21:22.510Z,1.30
2017-12-03T19:23:52.266Z,1.30
2017-12-03T19:26:22.676Z,1.40
2017-12-03T19:28:52.753Z,1.40
2017-12-03T19:31:22.385Z,1.40
2017-12-03T19:33:52.302Z,1.40
2017-12-03T19:36:21.950Z,1.40
2017-12-03T19:38:51.724Z,1.40
2017-12-03T19:41:21.362Z,1.50
2017-12-03T19:43:51.841Z,1.50
2017-12-03T19:46:21.524Z,1.50
2017-12-03T19:48:50.634Z,1.50
2017-12-03T19:51:20.328Z,1.60
2017-12-03T19:53:49.298Z,1.60
2017-12-03T19:56:19.043Z,1.70
2017-12-03T19:58:48.717Z,1.70
2017-12-03T20:01:19.135Z,1.70
2017-12-03T20:03:48.867Z,1.70
2017-12-03T20:06:18.630Z,1.80
2017-12-03T20:08:48.309Z,1.80
2017-12-03T20:11:17.967Z,1.80
2017-12-03T20:13:55.132Z,1.80
2017-12-03T20:16:25.707Z,1.80
2017-12-03T20:18:55.494Z,1.90
2017-12-03T20:21:24.974Z,1.90
2017-12-03T20:23:54.333Z,2.00
2017-12-03T20:26:23.715Z,1.90
2017-12-03T20:28:53.037Z,1.90
2017-12-03T20:31:21.679Z,2.00
2017-12-03T20:33:51.050Z,2.00
2017-12-03T20:36:20.501Z,2.10
2017-12-03T20:38:49.971Z,2.10
2017-12-03T20:41:20.101Z,2.00
2017-12-03T20:43:49.271Z,2.10
2017-12-03T20:46:18.761Z,2.10
2017-12-03T20:48:48.127Z,2.20
2017-12-03T20:51:17.476Z,2.20
2017-12-03T20:53:46.450Z,2.20
2017-12-03T20:56:16.905Z,2.30
2017-12-03T20:58:46.222Z,2.30
2017-12-03T21:01:15.883Z,2.30
2017-12-03T21:03:45.234Z,2.40
2017-12-03T21:06:14.897Z,2.40
2017-12-03T21:08:45.324Z,2.50
2017-12-03T21:11:15.843Z,2.50
2017-12-03T21:13:45.521Z,2.50
2017-12-03T21:16:14.883Z,2.50
2017-12-03T21:18:43.865Z,2.60
2017-12-03T21:21:13.343Z,2.60
2017-12-03T21:23:43.038Z,2.60
2017-12-03T21:26:12.498Z,2.60
2017-12-03T21:28:41.806Z,2.60
2017-12-03T21:31:11.512Z,2.60
2017-12-03T21:33:41.157Z,2.60
2017-12-03T21:36:10.488Z,2.60
2017-12-03T21:38:40.167Z,2.70
2017-12-03T21:41:09.171Z,2.70
2017-12-03T21:43:38.819Z,2.70
2017-12-03T21:46:08.190Z,2.70
2017-12-03T21:48:37.506Z,2.70
2017-12-03T21:51:07.157Z,2.70
2017-12-03T21:53:36.841Z,2.70
2017-12-03T21:56:07.260Z,2.80
2017-12-03T21:58:36.636Z,2.80
2017-12-03T22:01:06.284Z,2.70
2017-12-03T22:03:35.763Z,2.70
2017-12-03T22:06:05.446Z,2.70
2017-12-03T22:08:35.099Z,2.70
2017-12-03T22:11:05.577Z,2.80
2017-12-03T22:13:35.212Z,2.80
2017-12-03T22:16:04.873Z,2.80
2017-12-03T22:18:34.562Z,2.80
2017-12-03T22:21:04.342Z,2.70
2017-12-03T22:23:33.986Z,2.80
2017-12-03T22:26:03.658Z,2.70
2017-12-03T22:28:33.297Z,2.80
2017-12-03T22:31:03.146Z,2.80
2017-12-03T22:33:32.815Z,2.80
2017-12-03T22:36:03.224Z,2.80
2017-12-03T22:38:32.932Z,2.80
2017-12-03T22:41:02.576Z,2.90
2017-12-03T22:43:32.378Z,2.90
2017-12-03T22:46:02.792Z,2.90
2017-12-03T22:48:32.533Z,2.90
2017-12-03T22:51:02.190Z,2.90
2017-12-03T22:53:31.873Z,3.00
2017-12-03T22:56:01.338Z,3.00
2017-12-03T22:58:31.025Z,2.90
2017-12-03T23:01:00.665Z,2.90
2017-12-03T23:03:30.153Z,3.00
2017-12-03T23:06:00.646Z,3.00
2017-12-03T23:08:30.487Z,3.00
2017-12-03T23:11:00.165Z,3.00
2017-12-03T23:13:29.806Z,3.00
2017-12-03T23:16:00.239Z,3.10
2017-12-03T23:18:30.681Z,3.10
2017-12-03T23:21:00.337Z,3.10
2017-12-03T23:23:29.658Z,3.20
2017-12-03T23:25:58.545Z,3.20
2017-12-03T23:28:27.802Z,3.20
2017-12-03T23:30:57.285Z,3.20
2017-12-03T23:33:26.261Z,3.20
2017-12-03T23:35:56.499Z,3.20
2017-12-03T23:38:26.637Z,3.20
2017-12-03T23:40:55.974Z,3.20
2017-12-03T23:43:24.766Z,3.30
2017-12-03T23:45:53.933Z,3.30
2017-12-03T23:48:23.576Z,3.30
2017-12-03T23:50:52.570Z,3.40
2017-12-03T23:53:21.391Z,3.30
2017-12-03T23:55:51.147Z,3.40
2017-12-03T23:58:20.520Z,3.40
